Time;durP1;ratioP1;P1;durP2;ratioP2;P2;SDS_P1;SDS_P2;PMS_P1;PMS_P2;Temp;Humidity;BMP_temperature;BMP_pressure;BME280_temperature;BME280_humidity;BME280_pressure;Samples;Min_cycle;Max_cycle;Signal;HPM_P1;HPM_P2
2021/08/07 00:02:04;;;;;;;3.17;2.67;;;15.50;85.10;;;14.02;79.45;97140.50;5033373;28;20454;-86
2021/08/07 00:04:34;;;;;;;2.87;2.67;;;15.50;85.90;;;13.79;79.55;97133.50;5038276;28;20540;-86
2021/08/07 00:07:01;;;;;;;5.27;2.87;;;15.50;85.90;;;14.49;80.42;97232.44;5040474;28;20450;-86
2021/08/07 00:09:32;;;;;;;3.83;2.60;;;15.40;86.90;;;14.50;79.99;97239.50;5042388;28;20438;-86
2021/08/07 00:12:04;;;;;;;5.23;2.20;;;15.40;86.60;;;14.43;80.09;97224.22;5039194;28;20439;-86
2021/08/07 00:14:32;;;;;;;4.50;2.47;;;15.40;86.90;;;14.61;79.60;97232.22;5044442;28;20513;-86
2021/08/07 00:17:02;;;;;;;3.70;2.60;;;15.40;87.00;;;14.26;80.14;97216.22;5033834;28;20478;-86
2021/08/07 00:19:31;;;;;;;5.77;2.50;;;15.40;86.50;;;14.36;80.51;97248.06;5046234;28;20462;-86
2021/08/07 00:22:00;;;;;;;2.67;2.47;;;15.20;87.50;;;13.86;80.72;97172.13;5055029;28;20543;-85
2021/08/07 00:24:30;;;;;;;3.97;2.80;;;15.10;88.00;;;14.21;80.52;97228.94;5035964;28;20478;-86
2021/08/07 00:27:04;;;;;;;3.80;2.70;;;15.10;88.40;;;14.08;80.79;97225.56;5038856;28;20451;-85
2021/08/07 00:29:36;;;;;;;2.80;2.60;;;15.00;88.50;;;13.49;82.34;97178.28;5035793;28;20498;-86
2021/08/07 00:32:09;;;;;;;3.10;2.90;;;14.80;89.90;;;13.83;82.19;97228.84;5035387;28;20823;-86
2021/08/07 00:34:37;;;;;;;4.47;3.33;;;14.70;90.10;;;12.66;82.53;97044.47;5037249;28;20454;-86
2021/08/07 00:37:05;;;;;;;2.63;2.43;;;14.70;91.10;;;13.99;82.43;97213.50;5027929;28;20459;-86
2021/08/07 00:39:33;;;;;;;2.87;2.67;;;14.70;91.50;;;13.60;82.47;97163.75;5036731;28;20604;-86
2021/08/07 00:42:05;;;;;;;2.80;2.53;;;14.80;91.20;;;13.94;82.62;97222.41;5019649;28;20458;-85
2021/08/07 00:44:33;;;;;;;2.80;2.60;;;14.80;91.30;;;13.95;82.32;97215.09;5036352;28;20497;-86
2021/08/07 00:47:00;;;;;;;4.67;2.47;;;14.80;91.40;;;14.03;82.04;97217.38;5048079;28;20451;-85
2021/08/07 00:49:28;;;;;;;3.70;2.70;;;14.80;91.30;;;13.97;82.15;97221.09;5027353;28;20518;-85
2021/08/07 00:51:56;;;;;;;3.30;2.80;;;14.80;91.10;;;13.94;82.30;97221.63;5039850;28;20447;-86
2021/08/07 00:54:30;;;;;;;3.20;2.70;;;14.80;91.30;;;13.85;82.61;97213.91;5040453;28;20486;-87
2021/08/07 00:56:59;;;;;;;4.20;2.60;;;14.80;91.50;;;13.87;82.60;97222.63;5033366;28;20454;-86
2021/08/07 00:59:33;;;;;;;2.43;2.23;;;14.70;91.50;;;13.80;82.80;97211.16;5036536;28;20497;-86
2021/08/07 01:02:06;;;;;;;2.93;2.73;;;14.70;91.80;;;13.01;82.62;97097.44;5045398;28;20443;-86
2021/08/07 01:04:40;;;;;;;4.23;2.60;;;14.60;91.80;;;13.61;83.12;97194.41;5039038;28;20458;-86
2021/08/07 01:07:18;;;;;;;2.83;2.60;;;14.60;92.20;;;13.53;83.21;97184.03;5043883;28;20537;-86
2021/08/07 01:09:57;;;;;;;3.30;3.00;;;14.50;92.30;;;13.74;82.67;97191.28;5053130;28;20442;-86
2021/08/07 01:12:30;;;;;;;3.60;2.70;;;14.60;92.60;;;13.72;82.79;97203.47;5046596;28;20461;-86
2021/08/07 01:15:02;;;;;;;2.73;2.53;;;14.60;92.00;;;13.17;82.90;97125.53;5041938;28;20449;-87
2021/08/07 01:17:33;;;;;;;4.70;2.80;;;14.50;92.20;;;13.18;82.76;97108.19;5030232;28;20450;-86
2021/08/07 01:20:11;;;;;;;2.90;2.50;;;14.60;92.30;;;13.60;82.57;97169.19;5034079;28;20466;-86
2021/08/07 01:22:50;;;;;;;4.57;3.40;;;14.60;92.00;;;13.55;82.82;97166.38;5039604;28;20519;-87
2021/08/07 01:25:19;;;;;;;2.60;2.40;;;14.60;92.00;;;13.81;82.22;97191.09;5053995;28;20461;-86
2021/08/07 01:27:55;;;;;;;2.57;2.37;;;14.60;91.90;;;13.70;82.05;97181.19;5035106;28;20447;-86
2021/08/07 01:30:23;;;;;;;3.97;2.70;;;14.60;91.60;;;13.74;82.79;97193.19;5036448;28;20761;-87
2021/08/07 01:32:51;;;;;;;3.00;2.70;;;14.60;91.80;;;13.63;82.80;97180.59;5048544;28;20451;-86
2021/08/07 01:35:19;;;;;;;2.87;2.67;;;14.50;91.90;;;13.66;82.82;97191.75;5037729;28;20457;-86
2021/08/07 01:37:47;;;;;;;3.67;2.30;;;14.50;91.90;;;13.72;82.60;97195.31;5036247;28;20446;-87
2021/08/07 01:40:16;;;;;;;4.10;2.30;;;14.50;92.30;;;13.36;82.77;97133.34;5035490;28;20494;-86
2021/08/07 01:42:48;;;;;;;3.53;3.00;;;14.50;92.20;;;13.66;82.68;97193.66;5052382;28;20458;-86
2021/08/07 01:45:19;;;;;;;3.30;2.80;;;14.50;92.10;;;13.58;82.69;97190.34;5037672;28;20482;-87
2021/08/07 01:48:01;;;;;;;4.43;2.60;;;14.50;92.20;;;13.44;83.70;97199.94;5040903;28;20482;-86
2021/08/07 01:50:35;;;;;;;3.20;2.90;;;14.30;92.20;;;13.30;83.70;97192.16;5039410;28;20891;-86
2021/08/07 01:53:06;;;;;;;9.40;3.20;;;14.20;92.70;;;13.20;84.05;97175.75;5031897;28;21315;-86
2021/08/07 01:55:40;;;;;;;2.63;2.43;;;14.20;93.30;;;13.40;84.10;97206.91;5034639;28;20447;-86
2021/08/07 01:58:14;;;;;;;2.90;2.67;;;14.20;93.40;;;13.36;83.45;97193.03;5004451;28;20976;-86
2021/08/07 02:00:48;;;;;;;3.13;2.80;;;14.20;93.70;;;13.17;83.90;97171.66;5040863;28;20482;-87
2021/08/07 02:03:18;;;;;;;3.27;2.97;;;14.20;93.50;;;13.35;83.90;97201.41;5061993;28;20481;-87
2021/08/07 02:05:51;;;;;;;3.80;2.73;;;14.20;93.40;;;13.18;84.45;97192.25;5052440;28;20458;-87
2021/08/07 02:08:22;;;;;;;2.90;2.70;;;14.10;93.70;;;12.96;84.61;97175.19;5038119;28;20454;-87
2021/08/07 02:10:52;;;;;;;3.33;3.03;;;14.10;94.20;;;12.89;85.10;97175.38;5036688;28;20464;-87
2021/08/07 02:13:24;;;;;;;3.43;3.10;;;13.90;94.40;;;13.03;85.06;97201.03;5040079;28;20458;-88
2021/08/07 02:18:41;;;;;;;3.17;2.87;;;13.90;95.10;;;12.73;85.34;97160.78;5050852;28;20456;-87
2021/08/07 02:21:12;;;;;;;2.73;2.53;;;13.80;95.20;;;12.94;85.33;97180.03;5038303;28;20525;-87
2021/08/07 02:23:40;;;;;;;3.30;3.10;;;13.90;95.60;;;12.90;85.26;97166.16;5038573;28;20446;-87
2021/08/07 02:26:09;;;;;;;4.80;2.93;;;13.80;95.20;;;12.85;85.32;97152.56;5038547;28;20450;-87
2021/08/07 02:28:38;;;;;;;3.80;3.17;;;13.90;95.70;;;12.52;85.04;97100.09;5037742;28;20451;-87
2021/08/07 02:31:11;;;;;;;5.30;3.10;;;13.90;95.70;;;13.00;84.83;97185.28;5041082;28;20467;-87
2021/08/07 02:33:46;;;;;;;3.70;2.70;;;13.80;95.10;;;12.96;85.22;97192.25;5041020;28;20465;-87
2021/08/07 02:36:15;;;;;;;3.93;2.97;;;13.80;95.50;;;12.75;85.00;97167.59;5041311;28;20469;-87
2021/08/07 02:38:46;;;;;;;2.93;2.63;;;13.80;95.30;;;12.80;85.04;97144.34;5034649;28;20481;-87
2021/08/07 02:41:14;;;;;;;3.50;2.97;;;13.80;95.50;;;12.40;85.15;97114.56;5041662;28;20455;-86
2021/08/07 02:43:45;;;;;;;3.50;3.03;;;13.70;95.00;;;12.61;85.53;97150.06;5046458;28;20456;-86
2021/08/07 02:46:13;;;;;;;4.03;2.80;;;13.70;95.70;;;12.74;86.16;97184.94;5055132;28;20457;-87
2021/08/07 02:48:43;;;;;;;3.60;3.00;;;13.60;96.00;;;12.71;86.09;97187.31;5057532;28;20446;-88
2021/08/07 02:51:13;;;;;;;3.10;2.90;;;13.60;96.10;;;12.13;86.30;97109.00;5057954;28;20457;-87
2021/08/07 02:53:42;;;;;;;5.60;3.40;;;13.60;96.20;;;12.48;86.38;97175.63;5056162;28;20439;-87
2021/08/07 02:56:09;;;;;;;3.37;3.07;;;13.50;97.10;;;12.23;87.08;97132.72;5050677;28;21064;-87
2021/08/07 02:58:39;;;;;;;5.13;2.70;;;13.40;97.30;;;12.44;87.23;97159.03;5052939;28;20469;-87
2021/08/07 03:01:10;;;;;;;3.70;3.40;;;13.40;98.00;;;12.38;87.14;97146.50;5053428;28;20446;-88
2021/08/07 03:03:43;;;;;;;5.30;3.30;;;13.40;98.80;;;11.95;87.00;97066.75;5036995;28;20462;-88
2021/08/07 03:06:12;;;;;;;4.53;3.23;;;13.40;99.10;;;12.47;86.97;97153.13;5049710;28;20454;-87
2021/08/07 03:08:40;;;;;;;3.83;3.23;;;13.50;98.70;;;11.60;87.07;97025.38;5035886;28;20487;-88
2021/08/07 03:11:15;;;;;;;3.70;3.43;;;13.50;98.60;;;12.09;87.10;97097.88;5059401;28;20454;-88
2021/08/07 03:13:42;;;;;;;5.80;3.20;;;13.30;98.60;;;12.36;87.49;97139.69;5039935;28;20507;-88
2021/08/07 03:16:13;;;;;;;3.47;3.13;;;13.40;99.50;;;11.89;87.26;97074.78;5030298;28;20472;-88
2021/08/07 03:18:40;;;;;;;5.63;3.20;;;13.30;98.90;;;12.12;86.88;97110.91;5039652;28;20447;-87
2021/08/07 03:21:08;;;;;;;3.20;3.00;;;13.40;99.10;;;12.36;87.10;97166.78;5037763;28;20511;-88
2021/08/07 03:23:36;;;;;;;4.40;4.00;;;13.30;98.70;;;12.29;87.24;97158.81;5040527;28;20447;-88
2021/08/07 03:26:04;;;;;;;4.07;2.97;;;13.30;99.20;;;11.95;87.89;97112.78;5036768;28;20450;-88
2021/08/07 03:28:33;;;;;;;4.20;3.30;;;13.30;99.90;;;12.09;87.70;97137.66;5031734;28;20451;-88
2021/08/07 03:31:02;;;;;;;4.33;3.90;;;13.30;99.90;;;12.25;87.61;97157.69;5039015;28;20489;-87
2021/08/07 03:33:35;;;;;;;4.30;3.20;;;13.20;99.90;;;12.16;87.63;97144.53;5066452;28;20561;-88
2021/08/07 03:36:03;;;;;;;3.40;3.10;;;13.20;99.90;;;12.05;87.65;97140.03;5052483;28;20541;-88
2021/08/07 03:38:33;;;;;;;5.83;3.30;;;13.20;99.90;;;12.06;87.79;97135.44;5041122;28;20464;-88
2021/08/07 03:41:00;;;;;;;4.40;3.43;;;13.20;99.90;;;12.19;88.28;97160.28;5040395;28;20470;-88
2021/08/07 03:43:28;;;;;;;3.73;3.47;;;13.20;99.90;;;12.16;88.63;97160.78;5039737;28;20553;-88
2021/08/07 03:45:55;;;;;;;3.50;3.00;;;13.20;99.90;;;12.19;88.62;97157.56;5044938;28;20469;-88
2021/08/07 03:48:23;;;;;;;3.70;3.33;;;13.20;99.90;;;12.37;87.88;97147.56;5038692;28;20446;-89
2021/08/07 03:50:55;;;;;;;4.40;3.57;;;13.30;99.90;;;12.43;87.06;97140.31;5025729;28;20447;-88
2021/08/07 03:53:25;;;;;;;5.30;3.70;;;13.40;99.90;;;11.94;87.07;97074.06;5044290;28;20541;-89
2021/08/07 03:55:53;;;;;;;3.97;3.20;;;13.40;99.30;;;12.26;86.88;97140.34;5040444;28;20485;-87
2021/08/07 03:58:32;;;;;;;3.80;3.50;;;13.40;98.30;;;12.14;87.12;97135.84;5021845;28;20463;-89
2021/08/07 04:01:00;;;;;;;4.83;3.77;;;13.30;98.30;;;12.01;87.67;97128.03;5042617;28;20466;-88
2021/08/07 04:03:27;;;;;;;3.90;3.60;;;13.20;99.10;;;12.17;87.51;97158.91;5044179;28;20850;-88
2021/08/07 04:06:00;;;;;;;3.80;3.50;;;13.20;99.80;;;12.02;87.89;97141.34;5042348;28;20446;-88
2021/08/07 04:08:28;;;;;;;4.00;3.70;;;13.10;99.90;;;12.03;87.42;97145.69;5041539;28;20450;-88
2021/08/07 04:11:07;;;;;;;5.60;3.40;;;13.10;99.90;;;12.19;87.47;97160.28;5043573;28;20454;-88
2021/08/07 04:13:35;;;;;;;6.13;3.80;;;13.10;99.90;;;12.19;87.66;97157.56;5044567;28;20451;-88
2021/08/07 04:16:09;;;;;;;4.10;3.70;;;13.10;99.90;;;12.19;87.61;97167.59;5053693;28;20449;-88
2021/08/07 04:18:39;;;;;;;5.43;3.73;;;13.20;99.90;;;12.23;88.42;97157.09;5042641;28;20473;-89
2021/08/07 04:21:09;;;;;;;5.20;3.50;;;13.20;99.90;;;12.17;88.28;97138.06;5043845;28;20827;-87
2021/08/07 04:23:36;;;;;;;4.40;3.43;;;13.20;99.90;;;12.28;87.44;97154.47;5037121;28;20540;-87
2021/08/07 04:26:08;;;;;;;4.40;3.77;;;13.20;99.90;;;12.28;87.56;97168.00;5035262;28;20443;-88
2021/08/07 04:28:35;;;;;;;5.93;4.10;;;13.30;99.90;;;12.31;87.40;97172.94;5035984;28;20485;-88
2021/08/07 04:31:08;;;;;;;3.90;3.60;;;13.30;99.60;;;12.40;87.31;97168.75;5032925;28;20589;-88
2021/08/07 04:33:36;;;;;;;4.40;3.50;;;13.40;98.80;;;12.37;86.89;97158.41;5027593;28;20454;-88
2021/08/07 04:36:05;;;;;;;3.90;3.60;;;13.50;97.40;;;12.04;86.23;97089.66;5019154;28;20454;-89
2021/08/07 04:38:36;;;;;;;3.90;3.50;;;13.60;96.80;;;12.33;86.24;97119.31;5035681;28;20450;-88
2021/08/07 04:41:05;;;;;;;4.10;3.80;;;13.70;96.20;;;12.55;85.97;97124.78;5042125;28;20467;-88
2021/08/07 04:43:34;;;;;;;4.70;3.37;;;13.80;95.20;;;12.75;85.14;97137.78;5038405;28;20465;-88
2021/08/07 04:46:04;;;;;;;3.47;2.93;;;13.90;94.30;;;12.96;84.56;97153.50;5037349;28;20948;-88
2021/08/07 04:48:33;;;;;;;3.97;2.70;;;14.00;93.60;;;13.19;83.68;97144.28;5034193;28;20561;-88
2021/08/07 04:51:00;;;;;;;3.77;2.97;;;14.20;92.60;;;13.21;83.30;97144.03;5038297;28;20466;-88
2021/08/07 04:53:30;;;;;;;4.30;3.10;;;14.40;92.10;;;13.02;83.98;97139.75;5052757;28;20538;-88
2021/08/07 04:56:02;;;;;;;4.70;3.10;;;14.20;91.80;;;12.99;82.72;97094.16;5026778;28;20490;-88
2021/08/07 04:58:30;;;;;;;3.23;2.83;;;14.70;90.40;;;13.72;80.42;97098.44;5038788;28;20844;-88
2021/08/07 05:00:57;;;;;;;3.43;3.00;;;16.00;84.60;;;14.70;78.24;97136.31;5039527;28;20462;-88
2021/08/07 05:03:28;;;;;;;3.63;2.67;;;16.80;80.20;;;14.79;76.13;97128.50;5029550;28;20569;-88
2021/08/07 05:06:01;;;;;;;3.80;2.63;;;16.80;76.90;;;14.36;77.80;97104.06;5032332;28;20447;-88
2021/08/07 05:08:31;;;;;;;4.47;2.70;;;16.30;78.60;;;14.33;78.36;97117.34;5029340;28;20532;-88
2021/08/07 05:11:00;;;;;;;2.90;2.70;;;16.10;79.80;;;14.07;78.13;97079.97;5037919;28;20512;-88
2021/08/07 05:13:29;;;;;;;3.07;2.57;;;16.00;80.90;;;14.25;77.80;97080.63;5058526;28;20453;-88
2021/08/07 05:15:58;;;;;;;2.50;2.00;;;16.20;80.30;;;14.99;76.31;97116.91;5034485;28;20456;-88
2021/08/07 05:18:25;;;;;;;5.67;2.70;;;17.20;75.90;;;15.76;73.87;97118.16;5037424;28;20462;-88
2021/08/07 05:20:54;;;;;;;3.40;2.40;;;18.20;71.80;;;16.14;71.13;97091.47;5040943;28;20467;-88
2021/08/07 05:23:22;;;;;;;2.03;1.93;;;19.10;68.20;;;17.10;67.79;97116.34;5039773;28;20488;-87
2021/08/07 05:25:49;;;;;;;3.00;2.10;;;19.40;66.10;;;16.53;67.95;97045.63;5035990;28;20441;-87
2021/08/07 05:28:21;;;;;;;2.77;2.37;;;19.00;66.50;;;17.16;67.48;97126.13;5039962;28;20749;-88
2021/08/07 05:30:49;;;;;;;2.83;2.00;;;18.70;66.80;;;16.73;67.99;97095.72;5049399;28;20529;-88
2021/08/07 05:33:18;;;;;;;2.37;2.17;;;18.70;66.60;;;16.26;70.52;97110.28;5029226;28;20811;-88
2021/08/07 05:35:45;;;;;;;2.33;2.13;;;18.10;67.50;;;16.19;71.96;97119.84;5030256;28;20842;-87
2021/08/07 05:38:13;;;;;;;6.10;1.93;;;17.90;68.90;;;16.13;72.12;97113.56;5047149;28;20477;-88
2021/08/07 05:40:40;;;;;;;2.20;2.00;;;17.80;69.90;;;15.96;72.07;97097.50;5031906;28;21046;-81
2021/08/07 05:43:07;;;;;;;2.33;2.03;;;17.60;70.20;;;16.04;72.42;97113.31;5038950;28;20446;-85
2021/08/07 05:45:37;;;;;;;2.43;2.23;;;17.50;71.30;;;15.74;72.83;97104.00;5057964;28;20442;-85
2021/08/07 05:48:06;;;;;;;4.37;2.63;;;17.20;71.40;;;15.85;72.18;97116.56;5042197;28;20553;-86
2021/08/07 05:50:35;;;;;;;2.60;2.20;;;16.90;72.30;;;15.60;73.89;97109.16;5059486;28;20458;-85
2021/08/07 05:53:02;;;;;;;6.17;2.60;;;16.70;74.30;;;15.41;73.80;97092.53;5057353;28;20534;-86
2021/08/07 05:55:29;;;;;;;2.60;2.20;;;16.70;75.20;;;15.06;74.13;97056.00;5044352;28;20459;-85
2021/08/07 05:57:58;;;;;;;3.97;2.73;;;16.50;75.50;;;15.28;74.77;97091.13;5041507;28;20462;-85
2021/08/07 06:00:26;;;;;;;1.97;1.80;;;16.50;76.50;;;15.37;74.56;97094.16;5032736;28;20497;-85
2021/08/07 06:02:55;;;;;;;4.10;2.27;;;16.60;76.10;;;15.30;74.02;97050.88;5042470;28;20466;-85
2021/08/07 06:05:23;;;;;;;2.87;2.07;;;17.00;76.00;;;15.95;73.25;97098.59;5041595;28;21040;-84
2021/08/07 06:07:51;;;;;;;5.63;2.63;;;17.40;74.30;;;16.33;71.95;97093.66;5032291;28;20516;-85
2021/08/07 06:10:18;;;;;;;2.57;2.13;;;17.90;72.10;;;15.79;71.15;97002.44;5038773;28;20442;-85
2021/08/07 06:12:46;;;;;;;2.23;2.00;;;18.00;70.50;;;16.17;71.10;97084.69;5043667;28;20470;-83
2021/08/07 06:15:14;;;;;;;3.50;2.80;;;17.60;71.00;;;15.96;71.49;97070.25;5040333;28;20474;-85
2021/08/07 06:17:41;;;;;;;2.30;2.10;;;17.30;72.40;;;16.29;71.42;97103.44;5039024;28;20596;-84
2021/08/07 06:20:15;;;;;;;3.23;2.57;;;17.10;73.30;;;16.21;71.72;97096.66;5040826;28;21298;-83
2021/08/07 06:22:43;;;;;;;3.90;2.33;;;17.10;73.80;;;16.34;70.76;97092.56;5039147;28;20537;-83
2021/08/07 06:25:12;;;;;;;2.33;2.13;;;17.00;73.90;;;16.12;71.20;97077.31;5040033;28;20455;-84
2021/08/07 06:27:39;;;;;;;3.97;2.40;;;16.90;74.50;;;16.25;71.64;97102.38;5037713;28;20623;-84
2021/08/07 06:30:08;;;;;;;2.93;2.37;;;17.00;75.10;;;16.11;72.52;97092.03;5038815;28;20542;-84
2021/08/07 06:32:35;;;;;;;3.50;2.40;;;17.20;75.60;;;16.22;71.36;97081.94;5030767;28;20516;-84
2021/08/07 06:35:03;;;;;;;6.10;2.23;;;17.30;74.70;;;16.40;71.81;97115.97;5036376;28;20461;-83
2021/08/07 06:37:34;;;;;;;4.70;2.53;;;17.30;74.50;;;16.59;71.09;97107.22;5037370;28;20451;-83
2021/08/07 06:40:01;;;;;;;3.07;2.50;;;17.40;74.80;;;16.30;71.45;97102.34;5035345;28;20451;-84
2021/08/07 06:42:28;;;;;;;3.50;2.73;;;17.40;73.80;;;16.54;70.55;97112.69;5036023;28;20972;-84
2021/08/07 06:44:55;;;;;;;2.73;2.37;;;17.50;73.40;;;16.61;70.52;97072.31;5035806;28;20508;-85
2021/08/07 06:47:22;;;;;;;2.70;2.30;;;17.80;73.30;;;16.83;70.56;97071.13;5033937;28;20453;-84
2021/08/07 06:49:49;;;;;;;2.40;2.20;;;18.00;72.90;;;17.01;69.19;97074.34;5037545;28;20526;-84
2021/08/07 06:52:16;;;;;;;2.87;2.43;;;18.20;72.20;;;17.36;69.09;97113.47;5035626;28;20984;-85
2021/08/07 06:54:45;;;;;;;2.37;2.17;;;18.40;71.70;;;17.43;68.67;97100.34;5038088;28;20451;-84
2021/08/07 06:57:16;;;;;;;3.50;2.60;;;18.50;70.90;;;17.60;68.10;97096.41;5036287;28;20460;-84
2021/08/07 06:59:44;;;;;;;4.60;2.30;;;18.70;70.60;;;17.78;67.88;97114.03;5036888;28;20475;-85
2021/08/07 07:02:11;;;;;;;5.30;2.20;;;18.80;70.20;;;17.90;67.65;97110.94;5033130;28;20470;-85
2021/08/07 07:04:38;;;;;;;6.30;2.20;;;18.90;69.90;;;17.87;67.38;97103.31;5035482;28;20449;-84
2021/08/07 07:07:06;;;;;;;3.00;2.53;;;19.00;69.50;;;17.84;67.22;97091.84;5040969;28;20455;-84
2021/08/07 07:09:33;;;;;;;3.97;2.70;;;19.00;69.20;;;18.04;66.91;97098.28;5027771;28;20890;-84
2021/08/07 07:12:05;;;;;;;4.97;2.27;;;19.10;69.40;;;18.21;66.44;97094.28;5034787;28;20538;-82
2021/08/07 07:14:32;;;;;;;2.33;2.13;;;19.20;69.10;;;17.98;66.28;97069.34;5035477;28;20979;-83
2021/08/07 07:16:59;;;;;;;2.77;1.77;;;19.20;68.90;;;18.27;66.42;97104.06;5051321;28;20482;-83
2021/08/07 07:19:29;;;;;;;2.53;2.33;;;19.30;69.00;;;18.46;65.62;97092.41;5035139;28;20520;-84
2021/08/07 07:21:57;;;;;;;3.33;1.90;;;19.30;68.60;;;18.60;65.74;97101.56;5035981;28;20482;-83
2021/08/07 07:24:24;;;;;;;1.73;1.60;;;19.60;68.70;;;18.80;64.91;97088.75;5033762;28;20455;-83
2021/08/07 07:26:51;;;;;;;2.23;2.03;;;19.70;68.10;;;18.65;64.37;97024.91;5035225;28;20451;-84
2021/08/07 07:29:20;;;;;;;3.13;2.17;;;20.00;68.00;;;19.30;63.51;97071.16;5022817;28;20462;-83
2021/08/07 07:31:47;;;;;;;2.07;1.83;;;20.20;67.40;;;19.37;62.58;97033.28;5040647;28;20435;-84
2021/08/07 07:34:14;;;;;;;2.93;1.93;;;20.50;67.10;;;19.90;61.54;97072.44;5043462;28;20505;-84
2021/08/07 07:36:41;;;;;;;5.30;2.13;;;20.80;66.60;;;20.26;60.42;97082.84;5051947;28;20459;-84
2021/08/07 07:39:08;;;;;;;2.03;1.83;;;21.00;65.50;;;20.34;60.03;97068.41;5046406;28;20526;-85
2021/08/07 07:41:36;;;;;;;2.47;1.87;;;21.20;65.30;;;20.58;59.29;97056.47;5051515;28;20528;-85
2021/08/07 07:44:03;;;;;;;4.00;1.93;;;21.50;64.80;;;21.26;58.53;97080.63;5029934;28;20473;-84
2021/08/07 07:46:31;;;;;;;2.30;2.07;;;22.00;64.50;;;21.69;56.55;97086.84;5039789;28;20478;-84
2021/08/07 07:48:58;;;;;;;3.67;2.10;;;22.50;63.30;;;21.55;55.54;97095.91;5033268;28;20462;-84
2021/08/07 07:51:25;;;;;;;1.70;1.50;;;22.70;61.50;;;21.41;56.07;97089.66;5033155;28;21007;-83
2021/08/07 07:53:52;;;;;;;3.17;1.73;;;22.70;61.30;;;21.55;56.51;97081.34;5033957;28;20537;-83
2021/08/07 07:56:21;;;;;;;1.93;1.50;;;22.70;61.60;;;21.91;54.96;97086.84;5033106;28;20454;-84
2021/08/07 07:58:49;;;;;;;4.00;1.57;;;22.90;61.20;;;22.34;53.58;97068.97;5035644;28;21155;-85
2021/08/07 08:01:16;;;;;;;4.00;1.70;;;23.30;60.60;;;22.51;53.45;97067.44;5032358;28;20554;-84
2021/08/07 08:03:45;;;;;;;1.83;1.57;;;23.40;60.10;;;22.18;53.50;97043.00;5031512;28;20454;-83
2021/08/07 08:06:12;;;;;;;1.80;1.37;;;23.40;59.80;;;22.35;53.02;97054.09;5028894;28;20486;-84
2021/08/07 08:08:40;;;;;;;3.67;1.70;;;23.40;59.40;;;22.21;52.89;97003.84;5032550;28;20668;-83
2021/08/07 08:11:07;;;;;;;3.60;1.50;;;23.50;59.60;;;22.65;52.64;97050.84;5031916;28;20453;-84
2021/08/07 08:13:34;;;;;;;1.57;1.47;;;23.60;59.40;;;22.81;52.53;97039.41;5030958;28;20526;-84
2021/08/07 08:16:02;;;;;;;2.10;1.70;;;23.70;59.50;;;22.70;52.18;97022.38;5032293;28;20491;-83
2021/08/07 08:18:29;;;;;;;2.57;1.50;;;23.70;59.10;;;22.70;51.57;97009.41;5031437;28;20457;-85
2021/08/07 08:20:58;;;;;;;2.00;1.60;;;23.70;59.00;;;22.78;52.50;97027.91;5032522;28;20522;-84
2021/08/07 08:23:26;;;;;;;2.63;1.40;;;23.70;59.00;;;22.77;51.75;97006.19;5026181;28;20557;-83
2021/08/07 08:25:53;;;;;;;1.70;1.60;;;23.80;58.90;;;23.07;51.08;97028.44;5031423;28;20469;-82
2021/08/07 08:28:21;;;;;;;4.97;1.50;;;23.80;58.50;;;23.02;51.91;97026.63;5030600;28;20482;-87
2021/08/07 08:30:50;;;;;;;1.70;1.60;;;23.90;58.80;;;22.98;51.54;97025.66;5046643;28;20989;-88
2021/08/07 08:33:18;;;;;;;3.03;1.60;;;24.00;58.40;;;22.85;50.97;97026.59;5036969;28;21165;-88
2021/08/07 08:35:46;;;;;;;1.80;1.63;;;23.70;58.00;;;22.95;52.32;97028.25;5023261;28;20455;-89
2021/08/07 08:38:16;;;;;;;1.90;1.67;;;23.70;58.90;;;23.03;51.78;97030.22;5038769;28;20507;-88
2021/08/07 08:40:46;;;;;;;4.10;1.30;;;23.80;58.60;;;23.02;51.90;97014.81;5036178;28;20512;-88
2021/08/07 08:43:24;;;;;;;4.53;1.73;;;23.90;58.70;;;22.60;51.63;96927.94;5039594;28;20446;-88
2021/08/07 08:45:51;;;;;;;1.80;1.60;;;24.00;58.40;;;22.91;52.62;97004.09;5029978;28;20546;-87
2021/08/07 08:48:20;;;;;;;2.93;1.50;;;24.00;58.60;;;23.10;51.77;97011.25;5031277;28;20616;-84
2021/08/07 08:50:48;;;;;;;1.50;1.30;;;24.00;58.30;;;23.17;51.62;96995.06;5057155;28;20518;-82
2021/08/07 08:53:17;;;;;;;3.97;2.23;;;24.00;58.50;;;23.43;50.47;96980.53;5042518;28;20457;-83
2021/08/07 08:55:44;;;;;;;3.13;2.00;;;24.20;58.20;;;23.73;50.05;97007.38;5034796;28;20442;-86
2021/08/07 08:58:11;;;;;;;1.63;1.23;;;24.40;57.80;;;23.73;48.20;96997.19;5031081;28;20470;-87
2021/08/07 09:00:41;;;;;;;3.63;1.63;;;24.70;56.80;;;23.63;47.74;97005.78;5037430;28;20510;-88
2021/08/07 09:03:09;;;;;;;2.93;1.83;;;24.70;56.00;;;23.71;47.54;97024.25;5032346;28;20534;-87
2021/08/07 09:05:42;;;;;;;1.70;1.47;;;24.70;55.80;;;23.52;47.61;97008.06;5033816;28;20459;-88
2021/08/07 09:08:10;;;;;;;2.33;1.63;;;24.60;55.60;;;23.70;48.24;97006.09;5047714;28;20442;-88
2021/08/07 09:10:38;;;;;;;1.77;1.57;;;24.80;56.10;;;23.86;47.64;97019.34;5043361;28;20458;-87
2021/08/07 09:13:06;;;;;;;1.70;1.60;;;24.80;55.90;;;23.59;47.22;97007.59;5031965;28;20550;-88
2021/08/07 09:15:40;;;;;;;2.70;1.50;;;24.80;55.30;;;24.02;46.96;97017.72;5032440;28;20453;-86
2021/08/07 09:18:39;;;;;;;2.73;1.87;;;24.90;55.50;;;23.89;46.76;96985.63;5032587;28;20510;-88
2021/08/07 09:21:16;;;;;;;1.53;1.43;;;25.10;55.40;;;24.40;46.36;97026.38;5035070;28;20465;-88
2021/08/07 09:23:44;;;;;;;2.13;1.50;;;25.20;55.20;;;24.92;45.83;97028.13;5035640;28;20468;-88
2021/08/07 09:26:25;;;;;;;2.77;2.10;;;25.80;55.30;;;25.12;45.18;97023.75;5034221;28;20648;-88
2021/08/07 09:28:55;;;;;;;1.50;1.27;;;26.00;54.90;;;24.86;44.51;96972.25;5036248;28;20545;-89
2021/08/07 09:31:27;;;;;;;1.97;1.77;;;26.20;54.30;;;25.48;44.28;97023.50;5041388;28;21007;-88
2021/08/07 09:34:17;;;;;;;2.07;1.50;;;26.20;54.40;;;24.92;44.77;97013.47;5039401;28;20454;-88
2021/08/07 09:36:53;;;;;;;1.60;1.37;;;26.00;54.20;;;24.62;45.26;97012.31;5039127;28;20581;-89
2021/08/07 09:39:37;;;;;;;2.20;1.70;;;25.60;54.30;;;24.77;45.39;96988.06;5037018;28;20460;-88
2021/08/07 09:42:07;;;;;;;6.87;1.60;;;25.60;54.70;;;24.90;44.83;96984.25;5034543;28;20465;-88
2021/08/07 09:44:39;;;;;;;3.17;1.93;;;25.80;54.60;;;25.14;45.10;96984.72;5032128;28;20465;-89
2021/08/07 09:47:17;;;;;;;2.10;1.67;;;26.00;54.60;;;25.69;44.43;96985.56;5026404;28;20991;-88
2021/08/07 09:49:49;;;;;;;4.07;1.83;;;26.40;54.60;;;25.38;44.10;96986.81;5027212;28;20478;-89
2021/08/07 09:52:17;;;;;;;1.60;1.30;;;26.50;54.00;;;25.59;43.76;97003.41;5027044;28;20473;-90
2021/08/07 09:54:51;;;;;;;2.97;2.03;;;26.60;53.80;;;25.83;42.83;96988.06;5024666;28;20490;-89
2021/08/07 09:57:33;;;;;;;1.87;1.30;;;26.90;53.20;;;25.37;42.99;96987.97;5019125;28;20462;-89
2021/08/07 10:00:02;;;;;;;2.00;1.40;;;26.70;52.70;;;25.44;41.93;96981.88;5028911;28;20462;-88
2021/08/07 10:02:32;;;;;;;1.90;1.70;;;26.40;52.50;;;25.36;42.71;96972.53;5040368;28;20462;-88
2021/08/07 10:05:00;;;;;;;2.97;1.60;;;26.40;52.70;;;25.80;41.78;96985.16;5027614;28;20450;-89
2021/08/07 10:07:28;;;;;;;3.10;1.70;;;26.50;52.40;;;25.39;42.96;96977.38;5029263;28;20462;-88
2021/08/07 10:09:58;;;;;;;1.83;1.47;;;26.40;52.60;;;25.52;42.34;96966.41;5010463;28;20461;-88
2021/08/07 10:12:29;;;;;;;1.90;1.80;;;26.40;52.60;;;25.11;42.57;96955.00;5024181;28;20450;-88
2021/08/07 10:14:57;;;;;;;3.47;1.40;;;26.30;52.40;;;25.49;42.70;96972.59;5021718;28;20466;-88
2021/08/07 10:20:17;;;;;;;2.03;1.30;;;26.50;52.90;;;25.38;43.06;96961.94;5030677;28;20465;-88
2021/08/07 10:22:51;;;;;;;3.33;1.67;;;26.50;52.80;;;25.61;43.25;96972.66;5028105;28;23039;-88
2021/08/07 10:25:26;;;;;;;2.53;1.50;;;26.40;53.00;;;25.56;42.50;96959.84;5027871;28;20455;-88
2021/08/07 10:28:09;;;;;;;1.57;1.47;;;26.50;52.80;;;25.33;42.99;96964.91;5029770;28;20476;-87
2021/08/07 10:30:38;;;;;;;2.23;1.60;;;26.30;52.40;;;25.83;42.51;96957.63;5030889;28;20523;-88
2021/08/07 10:33:08;;;;;;;5.93;5.20;;;26.50;52.80;;;26.16;41.45;96948.47;5043624;28;20456;-89
2021/08/07 10:35:37;;;;;;;2.40;1.97;;;26.80;52.50;;;26.33;41.99;96952.19;5025618;28;20992;-89
2021/08/07 10:38:05;;;;;;;2.13;1.60;;;27.20;52.60;;;26.67;40.47;96952.84;5026665;28;20458;-89